createdAt,value
2023-01-10T00:01:59.097Z,3.15
2023-01-10T00:04:27.309Z,3.21
2023-01-10T00:06:55.164Z,3.22
2023-01-10T00:09:23.112Z,3.28
2023-01-10T00:12:09.676Z,3.33
2023-01-10T00:14:37.684Z,3.33
2023-01-10T00:17:05.493Z,3.32
2023-01-10T00:19:33.251Z,3.32
2023-01-10T00:22:12.502Z,3.31
2023-01-10T00:24:41.630Z,3.29
2023-01-10T00:27:11.083Z,3.24
2023-01-10T00:29:38.962Z,3.21
2023-01-10T00:32:06.918Z,3.20
2023-01-10T00:34:35.536Z,3.17
2023-01-10T00:37:03.725Z,3.19
2023-01-10T00:39:31.518Z,3.24
2023-01-10T00:42:17.865Z,3.30
2023-01-10T00:44:46.935Z,3.31
2023-01-10T00:47:15.328Z,3.34
2023-01-10T00:49:43.212Z,3.34
2023-01-10T00:52:11.045Z,3.32
2023-01-10T00:54:38.946Z,3.36
2023-01-10T00:57:06.768Z,3.40
2023-01-10T00:59:34.675Z,3.35
2023-01-10T01:02:02.623Z,3.28
2023-01-10T01:04:34.511Z,3.25
2023-01-10T01:07:03.492Z,3.29
2023-01-10T01:09:31.392Z,3.32
2023-01-10T01:11:59.281Z,3.32
2023-01-10T01:14:27.525Z,3.29
2023-01-10T01:16:55.479Z,3.26
2023-01-10T01:19:23.294Z,3.22
2023-01-10T01:21:51.165Z,3.23
2023-01-10T01:24:19.192Z,3.18
2023-01-10T01:26:47.035Z,3.15
2023-01-10T01:29:16.731Z,3.12
2023-01-10T01:31:46.103Z,3.08
2023-01-10T01:34:14.804Z,3.09
2023-01-10T01:36:42.791Z,3.08
2023-01-10T01:39:10.661Z,3.10
2023-01-10T01:41:57.347Z,3.12
2023-01-10T01:44:32.143Z,3.15
2023-01-10T01:47:08.137Z,3.14
2023-01-10T01:49:41.173Z,3.20
2023-01-10T01:52:15.910Z,3.23
2023-01-10T01:54:43.881Z,3.29
2023-01-10T01:57:17.588Z,3.35
2023-01-10T01:59:48.674Z,3.39
2023-01-10T02:02:24.662Z,3.43
2023-01-10T02:05:00.674Z,3.44
2023-01-10T02:07:33.980Z,3.48
2023-01-10T02:10:09.416Z,3.45
2023-01-10T02:12:38.630Z,3.49
2023-01-10T02:15:07.117Z,3.48
2023-01-10T02:17:35.115Z,3.50
2023-01-10T02:20:09.068Z,3.51
2023-01-10T02:23:01.617Z,3.50
2023-01-10T02:26:00.502Z,3.49
2023-01-10T02:28:46.405Z,3.46
2023-01-10T02:31:26.628Z,3.51
2023-01-10T02:34:19.517Z,3.46
2023-01-10T02:37:02.425Z,3.54
2023-01-10T02:39:49.135Z,3.56
2023-01-10T02:42:30.318Z,3.53
2023-01-10T02:45:10.149Z,3.54
2023-01-10T02:47:40.244Z,3.58
2023-01-10T02:50:44.869Z,3.59
2023-01-10T02:53:34.572Z,3.64
2023-01-10T02:56:22.578Z,3.62
2023-01-10T02:59:06.614Z,3.61
2023-01-10T03:01:35.462Z,3.61
2023-01-10T03:04:17.726Z,3.59
2023-01-10T03:06:59.452Z,3.54
2023-01-10T03:09:35.413Z,3.53
2023-01-10T03:12:26.471Z,3.50
2023-01-10T03:14:56.838Z,3.41
2023-01-10T03:17:27.363Z,3.41
2023-01-10T03:20:01.078Z,3.41
2023-01-10T03:22:31.324Z,3.37
2023-01-10T03:25:01.709Z,3.36
2023-01-10T03:27:40.244Z,3.32
2023-01-10T03:30:20.839Z,3.24
2023-01-10T03:32:48.805Z,3.22
2023-01-10T03:35:17.313Z,3.19
2023-01-10T03:37:58.395Z,3.19
2023-01-10T03:40:59.357Z,3.19
2023-01-10T03:44:13.165Z,3.26
2023-01-10T03:46:52.656Z,3.40
2023-01-10T03:49:24.617Z,3.43
2023-01-10T03:51:53.996Z,3.44
2023-01-10T03:54:21.876Z,3.44
2023-01-10T03:56:51.587Z,3.43
2023-01-10T03:59:24.321Z,3.42
2023-01-10T04:01:53.004Z,3.47
2023-01-10T04:04:21.532Z,3.48
2023-01-10T04:06:49.342Z,3.54
2023-01-10T04:09:17.342Z,3.52
2023-01-10T04:11:45.538Z,3.45
2023-01-10T04:14:13.304Z,3.40
2023-01-10T04:16:41.196Z,3.38
2023-01-10T04:19:09.031Z,3.36
2023-01-10T04:21:36.902Z,3.36
2023-01-10T04:24:05.056Z,3.36
2023-01-10T04:26:33.007Z,3.41
2023-01-10T04:29:00.890Z,3.44
2023-01-10T04:31:29.333Z,3.48
2023-01-10T04:33:57.269Z,3.45
2023-01-10T04:36:25.308Z,3.51
2023-01-10T04:38:53.332Z,3.56
2023-01-10T04:41:21.204Z,3.61
2023-01-10T04:43:49.827Z,3.69
2023-01-10T04:46:17.787Z,3.66
2023-01-10T04:48:45.694Z,3.63
2023-01-10T04:51:13.645Z,3.58
2023-01-10T04:53:41.611Z,3.56
2023-01-10T04:56:15.140Z,3.62
2023-01-10T04:58:42.988Z,3.63
2023-01-10T05:01:13.483Z,3.62
2023-01-10T05:03:41.572Z,3.72
2023-01-10T05:06:10.217Z,3.72
2023-01-10T05:08:38.112Z,3.75
2023-01-10T05:11:05.894Z,3.81
2023-01-10T05:13:34.126Z,3.72
2023-01-10T05:16:01.905Z,3.65
2023-01-10T05:18:30.606Z,3.58
2023-01-10T05:21:04.004Z,3.53
2023-01-10T05:23:32.075Z,3.58
2023-01-10T05:26:12.835Z,3.57
2023-01-10T05:28:41.731Z,3.57
2023-01-10T05:31:12.563Z,3.58
2023-01-10T05:33:44.671Z,3.59
2023-01-10T05:36:12.539Z,3.59
2023-01-10T05:38:40.547Z,3.56
2023-01-10T05:41:08.773Z,3.55
2023-01-10T05:43:36.756Z,3.59
2023-01-10T05:46:04.896Z,3.64
2023-01-10T05:48:32.833Z,3.71
2023-01-10T05:51:00.847Z,3.68
2023-01-10T05:53:28.728Z,3.78
2023-01-10T05:55:59.456Z,3.82
2023-01-10T05:58:28.359Z,3.85
2023-01-10T06:00:57.246Z,3.77
2023-01-10T06:03:26.824Z,3.72
2023-01-10T06:05:55.659Z,3.69
2023-01-10T06:08:24.755Z,3.69
2023-01-10T06:10:52.722Z,3.66
2023-01-10T06:13:20.648Z,3.60
2023-01-10T06:15:49.148Z,3.58
2023-01-10T06:18:17.107Z,3.55
2023-01-10T06:20:45.315Z,3.57
2023-01-10T06:23:13.380Z,3.56
2023-01-10T06:25:41.857Z,3.50
2023-01-10T06:28:11.776Z,3.49
2023-01-10T06:30:42.203Z,3.52
2023-01-10T06:33:11.224Z,3.47
2023-01-10T06:35:40.570Z,3.44
2023-01-10T06:38:09.005Z,3.49
2023-01-10T06:40:36.922Z,3.43
2023-01-10T06:43:04.775Z,3.45
2023-01-10T06:45:33.383Z,3.38
2023-01-10T06:48:01.241Z,3.37
2023-01-10T06:50:29.407Z,3.38
2023-01-10T06:52:59.047Z,3.37
2023-01-10T06:55:27.675Z,3.39
2023-01-10T06:58:00.578Z,3.40
2023-01-10T07:00:30.418Z,3.41
2023-01-10T07:02:59.752Z,3.51
2023-01-10T07:05:29.732Z,3.55
2023-01-10T07:07:59.018Z,3.60
2023-01-10T07:10:27.940Z,3.65
2023-01-10T07:12:56.887Z,3.68
2023-01-10T07:15:27.167Z,3.74
2023-01-10T07:17:58.604Z,3.76
2023-01-10T07:20:27.413Z,3.76
2023-01-10T07:22:58.426Z,3.74
2023-01-10T07:25:28.624Z,3.75
2023-01-10T07:27:56.805Z,3.74
2023-01-10T07:30:26.147Z,3.76
2023-01-10T07:32:57.962Z,3.78
2023-01-10T07:35:26.215Z,3.81
2023-01-10T07:37:54.143Z,3.83
2023-01-10T07:40:21.971Z,3.86
2023-01-10T07:42:50.208Z,3.88
2023-01-10T07:45:18.165Z,3.92
2023-01-10T07:47:46.997Z,3.95
2023-01-10T07:50:17.860Z,3.96
2023-01-10T07:52:46.186Z,4.00
2023-01-10T07:55:14.192Z,4.00
2023-01-10T07:57:42.187Z,4.00
2023-01-10T08:00:11.121Z,4.02
2023-01-10T08:02:39.073Z,4.04
2023-01-10T08:05:07.415Z,4.06
2023-01-10T08:07:35.553Z,4.09
2023-01-10T08:10:05.202Z,4.13
2023-01-10T08:12:33.467Z,4.16
2023-01-10T08:15:01.324Z,4.17
2023-01-10T08:17:29.263Z,4.19
2023-01-10T08:19:57.145Z,4.22
2023-01-10T08:22:24.896Z,4.24
2023-01-10T08:24:53.180Z,4.25
2023-01-10T08:27:21.148Z,4.28
2023-01-10T08:29:48.993Z,4.30
2023-01-10T08:32:16.847Z,4.33
2023-01-10T08:34:44.794Z,4.34
2023-01-10T08:37:14.113Z,4.34
2023-01-10T08:39:42.012Z,4.33
2023-01-10T08:42:10.359Z,4.31
2023-01-10T08:44:38.288Z,4.33
2023-01-10T08:47:06.097Z,4.33
2023-01-10T08:49:34.102Z,4.36
2023-01-10T08:52:02.790Z,4.37
2023-01-10T08:54:31.028Z,4.37
2023-01-10T08:56:59.499Z,4.40
2023-01-10T08:59:27.354Z,4.46
2023-01-10T09:01:58.518Z,4.49
2023-01-10T09:04:29.319Z,4.52
2023-01-10T09:06:58.367Z,4.52
2023-01-10T09:09:26.261Z,4.54
2023-01-10T09:11:54.129Z,4.58
2023-01-10T09:14:22.009Z,4.62
2023-01-10T09:16:51.864Z,4.65
2023-01-10T09:19:19.681Z,4.67
2023-01-10T09:21:47.860Z,4.66
2023-01-10T09:24:16.197Z,4.65
2023-01-10T09:26:44.950Z,4.69
2023-01-10T09:29:12.754Z,4.76
2023-01-10T09:31:40.645Z,4.82
2023-01-10T09:34:08.746Z,4.86
2023-01-10T09:36:36.560Z,4.91
2023-01-10T09:39:04.570Z,4.96
2023-01-10T09:42:11.573Z,4.98
2023-01-10T09:44:42.303Z,5.00
2023-01-10T09:47:29.504Z,5.00
2023-01-10T09:50:06.552Z,5.01
2023-01-10T09:52:39.946Z,5.03
2023-01-10T09:55:31.488Z,5.04
2023-01-10T09:58:13.342Z,5.05
2023-01-10T10:00:47.947Z,5.05
2023-01-10T10:03:30.273Z,4.98
2023-01-10T10:06:11.199Z,4.91
2023-01-10T10:08:42.116Z,4.87
2023-01-10T10:11:11.067Z,4.87
2023-01-10T10:14:11.721Z,4.87
2023-01-10T10:17:13.661Z,4.91
2023-01-10T10:20:20.639Z,4.95
2023-01-10T10:23:17.623Z,5.05
2023-01-10T10:26:02.739Z,5.03
2023-01-10T10:28:53.463Z,5.10
2023-01-10T10:31:44.974Z,5.10
2023-01-10T10:34:38.793Z,5.18
2023-01-10T10:37:17.738Z,5.20
2023-01-10T10:39:57.029Z,5.22
2023-01-10T10:42:30.524Z,5.25
2023-01-10T10:45:15.261Z,5.27
2023-01-10T10:47:50.156Z,5.28
2023-01-10T10:50:31.602Z,5.30
2023-01-10T10:53:04.231Z,5.31
2023-01-10T10:55:35.753Z,5.36
2023-01-10T10:58:05.870Z,5.41
2023-01-10T11:00:34.648Z,5.46
2023-01-10T11:03:13.199Z,5.48
2023-01-10T11:05:44.832Z,5.52
2023-01-10T11:08:16.232Z,5.58
2023-01-10T11:10:52.440Z,5.61
2023-01-10T11:13:32.369Z,5.66
2023-01-10T11:16:02.196Z,5.74
2023-01-10T11:18:31.973Z,5.79
2023-01-10T11:21:14.078Z,5.83
2023-01-10T11:23:49.230Z,5.87
2023-01-10T11:26:37.372Z,5.96
2023-01-10T11:29:33.497Z,6.07
2023-01-10T11:32:10.086Z,6.14
2023-01-10T11:34:38.862Z,6.21
2023-01-10T11:37:32.444Z,6.25
2023-01-10T11:40:24.315Z,6.26
2023-01-10T11:42:59.237Z,6.21
2023-01-10T11:45:31.929Z,6.18
2023-01-10T11:48:21.389Z,6.16
2023-01-10T11:50:55.913Z,6.09
2023-01-10T11:53:42.549Z,6.10
2023-01-10T11:56:14.472Z,6.05
2023-01-10T11:58:44.057Z,6.02
2023-01-10T12:01:39.964Z,5.99
2023-01-10T12:04:18.001Z,6.00
2023-01-10T12:06:49.862Z,5.99
2023-01-10T12:09:36.561Z,6.02
2023-01-10T12:12:25.544Z,6.07
2023-01-10T12:14:56.092Z,6.03
2023-01-10T12:17:23.883Z,6.02
2023-01-10T12:19:53.713Z,6.04
2023-01-10T12:22:29.717Z,6.05
2023-01-10T12:24:59.874Z,6.04
2023-01-10T12:27:28.988Z,6.06
2023-01-10T12:30:35.112Z,6.00
2023-01-10T12:33:17.299Z,5.95
2023-01-10T12:36:23.797Z,5.94
2023-01-10T12:39:27.027Z,5.90
2023-01-10T12:42:36.304Z,5.94
2023-01-10T12:45:08.661Z,5.99
2023-01-10T12:48:07.971Z,6.02
2023-01-10T12:50:46.257Z,6.13
2023-01-10T12:53:23.705Z,6.21
2023-01-10T12:55:55.587Z,6.23
2023-01-10T12:58:35.957Z,6.29
2023-01-10T13:01:05.951Z,6.32
2023-01-10T13:03:35.675Z,6.35
2023-01-10T13:06:04.239Z,6.37
2023-01-10T13:08:37.994Z,6.39
2023-01-10T13:11:07.994Z,6.38
2023-01-10T13:13:41.100Z,6.39
2023-01-10T13:16:24.155Z,6.38
2023-01-10T13:19:23.106Z,6.36
2023-01-10T13:21:52.515Z,6.31
2023-01-10T13:24:29.086Z,6.26
2023-01-10T13:27:00.448Z,6.22
2023-01-10T13:29:39.230Z,6.13
2023-01-10T13:32:27.068Z,6.07
2023-01-10T13:35:08.600Z,6.10
2023-01-10T13:37:40.106Z,6.14
2023-01-10T13:40:08.466Z,6.17
2023-01-10T13:42:56.422Z,6.16
2023-01-10T13:45:27.713Z,6.16
2023-01-10T13:47:55.772Z,6.17
2023-01-10T13:50:28.599Z,6.20
2023-01-10T13:53:02.510Z,6.23
2023-01-10T13:55:35.973Z,6.23
2023-01-10T13:58:09.784Z,6.23
2023-01-10T14:00:56.507Z,6.25
2023-01-10T14:03:50.393Z,6.30
2023-01-10T14:06:20.524Z,6.33
2023-01-10T14:08:52.263Z,6.35
2023-01-10T14:11:23.608Z,6.37
2023-01-10T14:13:56.147Z,6.39
2023-01-10T14:16:34.746Z,6.40
2023-01-10T14:19:07.043Z,6.38
2023-01-10T14:21:45.382Z,6.37
2023-01-10T14:24:26.089Z,6.36
2023-01-10T14:26:58.728Z,6.35
2023-01-10T14:29:31.859Z,6.32
2023-01-10T14:32:01.437Z,6.31
2023-01-10T14:34:35.741Z,6.29
2023-01-10T14:37:09.619Z,6.25
2023-01-10T14:39:38.155Z,6.19
2023-01-10T14:42:14.051Z,6.17
2023-01-10T14:44:50.776Z,6.15
2023-01-10T14:47:32.867Z,6.10
2023-01-10T14:50:02.004Z,6.04
2023-01-10T14:52:30.919Z,6.01
2023-01-10T14:55:13.993Z,5.97
2023-01-10T14:57:53.719Z,5.94
2023-01-10T15:00:30.304Z,5.92
2023-01-10T15:03:03.140Z,5.88
2023-01-10T15:05:36.579Z,5.88
2023-01-10T15:08:27.133Z,5.86
2023-01-10T15:11:00.928Z,5.85
2023-01-10T15:13:31.489Z,5.85
2023-01-10T15:16:00.266Z,5.82
2023-01-10T15:18:36.236Z,5.77
2023-01-10T15:21:05.299Z,5.75
2023-01-10T15:23:39.145Z,5.70
2023-01-10T15:26:20.702Z,5.66
2023-01-10T15:29:10.972Z,5.64
2023-01-10T15:31:40.308Z,5.64
2023-01-10T15:34:11.261Z,5.64
2023-01-10T15:36:52.989Z,5.64
2023-01-10T15:39:27.176Z,5.64
2023-01-10T15:42:02.022Z,5.65
2023-01-10T15:44:41.145Z,5.64
2023-01-10T15:47:40.559Z,5.64
2023-01-10T15:50:32.090Z,5.63
2023-01-10T15:53:03.679Z,5.62
2023-01-10T15:55:39.657Z,5.61
2023-01-10T15:58:13.612Z,5.61
2023-01-10T16:00:51.747Z,5.60
2023-01-10T16:03:23.166Z,5.56
2023-01-10T16:05:58.849Z,5.51
2023-01-10T16:08:30.970Z,5.46
2023-01-10T16:11:01.380Z,5.42
2023-01-10T16:13:31.831Z,5.38
2023-01-10T16:16:02.291Z,5.35
2023-01-10T16:18:30.725Z,5.29
2023-01-10T16:21:03.195Z,5.24
2023-01-10T16:23:36.007Z,5.19
2023-01-10T16:26:06.686Z,5.11
2023-01-10T16:28:38.094Z,5.05
2023-01-10T16:31:10.468Z,5.01
2023-01-10T16:33:38.803Z,4.94
2023-01-10T16:36:17.701Z,4.84
2023-01-10T16:38:45.600Z,4.74
2023-01-10T16:41:33.788Z,4.70
2023-01-10T16:44:01.913Z,4.69
2023-01-10T16:46:30.336Z,4.71
2023-01-10T16:48:58.209Z,4.76
2023-01-10T16:51:30.365Z,4.79
2023-01-10T16:53:58.565Z,4.82
2023-01-10T16:56:29.005Z,4.80
2023-01-10T16:58:57.682Z,4.76
2023-01-10T17:01:54.589Z,4.75
2023-01-10T17:04:28.146Z,4.79
2023-01-10T17:06:56.942Z,4.85
2023-01-10T17:09:27.293Z,4.93
2023-01-10T17:12:10.759Z,4.95
2023-01-10T17:14:39.055Z,5.02
2023-01-10T17:17:06.896Z,5.06
2023-01-10T17:19:35.202Z,5.10
2023-01-10T17:22:03.064Z,5.14
2023-01-10T17:24:30.971Z,5.15
2023-01-10T17:26:58.914Z,5.17
2023-01-10T17:29:26.847Z,5.16
2023-01-10T17:31:54.783Z,5.11
2023-01-10T17:34:22.602Z,5.05
2023-01-10T17:36:50.598Z,5.03
2023-01-10T17:39:18.519Z,4.97
2023-01-10T17:41:46.404Z,4.92
2023-01-10T17:44:14.319Z,4.94
2023-01-10T17:46:42.229Z,4.95
2023-01-10T17:49:11.888Z,4.94
2023-01-10T17:51:41.310Z,4.92
2023-01-10T17:54:09.215Z,4.92
2023-01-10T17:56:37.044Z,4.91
2023-01-10T17:59:04.919Z,4.94
2023-01-10T18:01:32.931Z,4.95
2023-01-10T18:04:00.911Z,4.96
2023-01-10T18:06:28.798Z,5.01
2023-01-10T18:08:56.862Z,4.97
2023-01-10T18:11:25.411Z,4.98
2023-01-10T18:13:54.790Z,5.02
2023-01-10T18:16:23.627Z,5.06
2023-01-10T18:18:53.034Z,5.08
2023-01-10T18:21:20.977Z,5.13
2023-01-10T18:23:49.936Z,5.16
2023-01-10T18:26:18.024Z,5.16
2023-01-10T18:28:45.927Z,5.15
2023-01-10T18:31:16.700Z,5.14
2023-01-10T18:33:45.914Z,5.10
2023-01-10T18:36:20.705Z,5.05
2023-01-10T18:38:49.383Z,4.99
2023-01-10T18:41:18.759Z,4.99
2023-01-10T18:43:47.236Z,4.96
2023-01-10T18:46:21.222Z,4.93
2023-01-10T18:48:52.577Z,4.94
2023-01-10T18:51:22.704Z,4.94
2023-01-10T18:53:53.021Z,4.92
2023-01-10T18:56:21.119Z,4.88
2023-01-10T18:58:49.130Z,4.86
2023-01-10T19:01:19.585Z,4.85
2023-01-10T19:03:48.205Z,4.82
2023-01-10T19:06:17.594Z,4.83
2023-01-10T19:08:47.011Z,4.83
2023-01-10T19:11:16.778Z,4.82
2023-01-10T19:13:47.130Z,4.82
2023-01-10T19:16:24.139Z,4.85
2023-01-10T19:18:58.148Z,4.87
2023-01-10T19:21:27.721Z,4.88
2023-01-10T19:23:56.746Z,4.90
2023-01-10T19:26:25.597Z,4.92
2023-01-10T19:28:53.878Z,4.94
2023-01-10T19:31:27.581Z,4.96
2023-01-10T19:33:59.346Z,4.97
2023-01-10T19:36:28.447Z,4.96
2023-01-10T19:38:58.350Z,4.93
2023-01-10T19:41:27.790Z,4.92
2023-01-10T19:44:01.334Z,4.92
2023-01-10T19:46:32.337Z,4.92
2023-01-10T19:49:07.812Z,4.91
2023-01-10T19:51:38.063Z,4.89
2023-01-10T19:54:08.085Z,4.90
2023-01-10T19:56:36.434Z,4.92
2023-01-10T19:59:04.508Z,4.97
2023-01-10T20:01:32.467Z,4.99
2023-01-10T20:04:04.059Z,5.00
2023-01-10T20:06:35.206Z,5.00
2023-01-10T20:09:03.860Z,5.01
2023-01-10T20:11:37.895Z,5.08
2023-01-10T20:14:12.119Z,5.09
2023-01-10T20:16:41.699Z,5.11
2023-01-10T20:19:11.648Z,5.16
2023-01-10T20:21:41.394Z,5.21
2023-01-10T20:24:14.441Z,5.21
2023-01-10T20:26:43.664Z,5.13
2023-01-10T20:29:12.403Z,5.11
2023-01-10T20:31:40.353Z,5.11
2023-01-10T20:34:08.959Z,5.14
2023-01-10T20:36:36.853Z,5.17
2023-01-10T20:39:04.810Z,5.20
2023-01-10T20:41:32.869Z,5.20
2023-01-10T20:44:00.844Z,5.16
2023-01-10T20:46:31.888Z,5.14
2023-01-10T20:49:02.370Z,5.15
2023-01-10T20:51:33.852Z,5.14
2023-01-10T20:54:02.311Z,5.13
2023-01-10T20:56:31.950Z,5.10
2023-01-10T20:58:59.869Z,5.10
2023-01-10T21:01:34.622Z,5.03
2023-01-10T21:04:05.079Z,5.02
2023-01-10T21:06:34.142Z,5.05
2023-01-10T21:09:02.225Z,5.06
2023-01-10T21:11:30.217Z,5.08
2023-01-10T21:13:58.132Z,5.07
2023-01-10T21:16:26.051Z,5.05
2023-01-10T21:18:54.119Z,5.04
2023-01-10T21:21:24.867Z,5.05
2023-01-10T21:23:55.845Z,5.09
2023-01-10T21:26:23.736Z,5.10
2023-01-10T21:28:51.533Z,5.07
2023-01-10T21:31:21.662Z,4.99
2023-01-10T21:33:50.087Z,4.96
2023-01-10T21:36:18.152Z,4.97
2023-01-10T21:38:46.629Z,4.98
2023-01-10T21:41:38.380Z,4.97
2023-01-10T21:44:07.495Z,4.94
2023-01-10T21:46:35.974Z,4.96
2023-01-10T21:49:05.107Z,5.03
2023-01-10T21:51:32.973Z,5.08
2023-01-10T21:54:00.950Z,5.11
2023-01-10T21:56:28.809Z,5.12
2023-01-10T21:58:56.622Z,5.16
2023-01-10T22:01:24.456Z,5.14
2023-01-10T22:03:52.552Z,5.09
2023-01-10T22:06:20.468Z,5.06
2023-01-10T22:08:49.524Z,5.05
2023-01-10T22:11:17.389Z,5.05
2023-01-10T22:13:45.216Z,5.04
2023-01-10T22:16:13.877Z,4.98
2023-01-10T22:18:42.788Z,4.97
2023-01-10T22:21:12.640Z,4.99
2023-01-10T22:23:43.118Z,4.98
2023-01-10T22:26:14.112Z,5.04
2023-01-10T22:28:42.424Z,4.97
2023-01-10T22:31:10.316Z,4.89
2023-01-10T22:33:38.620Z,4.88
2023-01-10T22:36:13.362Z,4.91
2023-01-10T22:38:41.819Z,4.87
2023-01-10T22:41:12.645Z,4.83
2023-01-10T22:43:40.999Z,4.80
2023-01-10T22:46:09.637Z,4.81
2023-01-10T22:48:38.323Z,4.81
2023-01-10T22:51:06.452Z,4.78
2023-01-10T22:53:35.256Z,4.78
2023-01-10T22:56:05.793Z,4.78
2023-01-10T22:58:33.787Z,4.71
2023-01-10T23:01:06.494Z,4.61
2023-01-10T23:03:34.853Z,4.59
2023-01-10T23:06:02.724Z,4.56
2023-01-10T23:08:31.816Z,4.51
2023-01-10T23:11:00.551Z,4.45
2023-01-10T23:13:30.206Z,4.39
2023-01-10T23:16:06.311Z,4.38
2023-01-10T23:18:34.577Z,4.33
2023-01-10T23:21:02.487Z,4.25
2023-01-10T23:23:31.042Z,4.19
2023-01-10T23:26:03.959Z,4.15
2023-01-10T23:28:32.771Z,4.11
2023-01-10T23:31:00.866Z,4.11
2023-01-10T23:33:28.924Z,4.12
2023-01-10T23:35:57.001Z,4.12
2023-01-10T23:38:25.181Z,4.09
2023-01-10T23:40:53.034Z,4.03
2023-01-10T23:43:21.766Z,4.00
2023-01-10T23:45:49.945Z,4.00
2023-01-10T23:48:18.835Z,4.04
2023-01-10T23:50:48.819Z,4.02
2023-01-10T23:53:18.000Z,4.05
2023-01-10T23:55:45.917Z,4.09
2023-01-10T23:58:15.383Z,4.08
